• Join FlightAware (Why Join?)
  • Login
  • US Flag 
03:04AM EDT


 

Airport Tracker/Info


-or-


 

Live Flight TrackerFlight Track Log ✈ AAL832 ✈ 09-May-2013 ✈ KLAX - KORD

Flight Track Log - Related Links

Times and Time Zones

All times are in EDT time to prevent confusion due to time zone crossing. See the AAL832 flight status page for this flight to view local times or setup timezone preferences in your user account.

Time Position Orientation Groundspeed Altitude Reporting Facility
EDT Latitude Longitude Course Direction KTS MPH feet Rate Location/Type
12:33PM 33.9333 -118.4500 90° East 186 214 2,000  Level Southern California TRACON
12:33PM 33.9317 -118.4611 260° West 189 217 2,400 2,280 Climbing Los Angeles Center
12:34PM 33.8772 -118.5094 216° Southwest 246 283 5,000 2,820 Climbing Los Angeles Center
12:35PM 33.7667 -118.0149 90° East  Level FlightAware Approximate
12:35PM 33.8050 -118.5453 202° Southwest 284 327 8,300  Level Los Angeles Center
12:36PM 33.7667 -117.8648 90° East  Level FlightAware Approximate
12:36PM 33.7347 -118.5089 157° South 298 343 11,000  Level Los Angeles Center
12:37PM 33.7452 -117.7180 97° East  Level FlightAware Approximate
12:37PM 33.6722 -118.4311 134° Southeast 330 380 13,300  Level Los Angeles Center
12:38PM 33.7333 -117.5689 90° East  Level FlightAware Approximate
12:38PM 33.6467 -118.3031 103° East 356 410 16,300  Level Los Angeles Center
12:39PM 33.6481 -118.1781 89° East 382 440 18,100 1,980 Climbing Los Angeles Center
12:40PM 33.6475 -118.0436 90° East 401 461 20,400 2,160 Climbing Los Angeles Center
12:41PM 33.6481 -117.9039 90° East 415 478 22,600 2,160 Climbing Los Angeles Center
12:42PM 33.6461 -117.7311 91° East 430 495 24,900 1,980 Climbing Los Angeles Center
12:43PM 33.6450 -117.5819 90° East 446 513 26,700 1,620 Climbing Los Angeles Center
12:44PM 33.6439 -117.4267 90° East 463 533 28,300 1,440 Climbing Los Angeles Center
12:45PM 33.6419 -117.2694 91° East 473 544 29,700 1,320 Climbing Los Angeles Center
12:46PM 33.6394 -117.1067 91° East 488 562 31,100 1,680 Climbing Los Angeles Center
12:47PM 33.6378 -116.9114 91° East 491 565 33,300 1,800 Climbing Los Angeles Center
12:48PM 33.6475 -116.7442 86° East 489 563 34,900 720 Climbing Los Angeles Center
12:49PM 33.6828 -116.5864 75° East 488 562 34,900  Level Los Angeles Center
12:50PM 33.7183 -116.4281 75° East 488 562 34,900  Level Los Angeles Center
12:52PM 33.7469 -116.3019 75° East 488 562 35,000 360 Climbing Los Angeles Center
12:53PM 33.7892 -116.1128 75° East 488 562 35,700 900 Climbing Los Angeles Center
12:54PM 33.8236 -115.9581 75° East 480 552 36,900 540 Climbing Los Angeles Center
12:55PM 33.8633 -115.7792 75° East 463 533 36,900  Level Los Angeles Center
12:56PM 33.8950 -115.6261 76° East 468 539 36,900  Level Los Angeles Center
12:57PM 33.9286 -115.4733 75° East 472 543 36,900  Level Los Angeles Center
12:58PM 33.9619 -115.3200 75° East 475 547 36,900  Level Los Angeles Center
12:59PM 33.9958 -115.1672 75° East 473 544 36,900  Level Los Angeles Center
01:00PM 34.0289 -115.0111 76° East 478 550 36,900  Level Los Angeles Center
01:01PM 34.0703 -114.8258 75° East 480 552 36,900  Level Los Angeles Center
01:02PM 34.1036 -114.6700 75° East 480 552 36,900  Level Los Angeles Center
01:03PM 34.1472 -114.5183 71° East 481 554 36,900  Level Los Angeles Center
01:04PM 34.1914 -114.3658 71° East 482 555 36,900  Level Los Angeles Center
01:05PM 34.2281 -114.2372 71° East 482 555 37,000  Climbing Albuquerque Center
01:06PM 34.2719 -114.0836 71° East 485 558 37,000  Level Albuquerque Center
01:07PM 34.3136 -113.9314 72° East 481 554 37,000  Level Albuquerque Center
01:08PM 34.3542 -113.7786 72° East 480 552 37,000  Level Albuquerque Center
01:09PM 34.3911 -113.6383 72° East 478 550 37,000  Level Albuquerque Center
01:10PM 34.4386 -113.4656 72° East 479 551 37,000  Level Albuquerque Center
01:11PM 34.4803 -113.3156 71° East 478 550 37,000  Level Albuquerque Center
01:12PM 34.5208 -113.1650 72° East 475 547 37,000  Level Albuquerque Center
01:13PM 34.5692 -112.9839 72° East 475 547 37,000  Level Albuquerque Center
01:14PM 34.6092 -112.8322 72° East 478 550 37,000  Level Albuquerque Center
01:15PM 34.6492 -112.6806 72° East 477 549 37,000  Level Albuquerque Center
01:16PM 34.6894 -112.5283 72° East 478 550 37,000  Level Albuquerque Center
01:17PM 34.7319 -112.3511 74° East 478 550 37,000  Level Albuquerque Center
01:18PM 34.7675 -112.1900 75° East 478 550 37,000  Level Albuquerque Center
01:19PM 34.8028 -112.0344 75° East 479 551 37,000  Level Albuquerque Center
01:20PM 34.8386 -111.8781 74° East 482 555 37,000  Level Albuquerque Center
01:21PM 34.8753 -111.7211 74° East 484 557 37,000  Level Albuquerque Center
01:22PM 34.9097 -111.5628 75° East 483 556 37,000  Level Albuquerque Center
01:23PM 34.9525 -111.3736 75° East 482 555 37,000  Level Albuquerque Center
01:24PM 34.9878 -111.2139 75° East 485 558 37,000  Level Albuquerque Center
01:25PM 35.0239 -111.0550 74° East 486 559 37,000  Level Albuquerque Center
01:26PM 35.0581 -110.8958 75° East 485 558 37,000  Level Albuquerque Center
01:27PM 35.0950 -110.7214 75° East 488 562 37,000  Level Albuquerque Center
01:28PM 35.1339 -110.5433 75° East 487 560 37,000  Level Albuquerque Center
01:29PM 35.1656 -110.3903 76° East 485 558 37,000  Level Albuquerque Center
01:31PM 35.2047 -110.2139 75° East 485 558 37,000  Level Albuquerque Center
01:32PM 35.2372 -110.0611 75° East 485 558 37,000  Level Albuquerque Center
01:33PM 35.2692 -109.9078 76° East 486 559 37,000  Level Albuquerque Center
01:34PM 35.3067 -109.7289 76° East 487 560 37,000  Level Albuquerque Center
01:35PM 35.3378 -109.5736 76° East 490 564 37,000  Level Albuquerque Center
01:36PM 35.3747 -109.3953 76° East 487 560 37,000  Level Albuquerque Center
01:37PM 35.4058 -109.2408 76° East 488 562 37,000  Level Albuquerque Center
01:38PM 35.4425 -109.0617 76° East 488 562 37,000  Level Albuquerque Center
01:39PM 35.4731 -108.9078 76° East 487 560 37,000  Level Albuquerque Center
01:40PM 35.5189 -108.7322 72° East 487 560 37,000  Level Albuquerque Center
01:41PM 35.5597 -108.5817 72° East 488 562 37,000  Level Albuquerque Center
01:42PM 35.6075 -108.4053 72° East 490 564 37,000  Level Albuquerque Center
01:43PM 35.6483 -108.2528 72° East 492 566 37,000  Level Albuquerque Center
01:44PM 35.6956 -108.0750 72° East 492 566 37,000  Level Albuquerque Center
01:45PM 35.7356 -107.9225 72° East 491 565 37,000  Level Albuquerque Center
01:46PM 35.7822 -107.7442 72° East 491 565 37,000  Level Albuquerque Center
01:47PM 35.8217 -107.5892 73° East 494 568 37,000  Level Albuquerque Center
01:48PM 35.8689 -107.4111 72° East 493 567 37,000  Level Albuquerque Center
01:49PM 35.9072 -107.2581 73° East 490 564 37,000  Level Albuquerque Center
01:50PM 35.9486 -107.0969 72° East 490 564 37,000  Level Albuquerque Center
01:51PM 35.9892 -106.9367 73° East 489 563 37,000  Level Albuquerque Center
01:52PM 36.0297 -106.7767 73° East 488 562 37,000  Level Albuquerque Center
01:53PM 36.0789 -106.5833 72° East 489 563 37,000  Level Albuquerque Center
01:54PM 36.1186 -106.4217 73° East 490 564 37,000  Level Albuquerque Center
01:55PM 36.1586 -106.2608 73° East 489 563 37,000  Level Albuquerque Center
01:56PM 36.1983 -106.1008 73° East 487 560 37,000  Level Albuquerque Center
01:57PM 36.2381 -105.9386 73° East 490 564 37,000  Level Albuquerque Center
01:58PM 36.2769 -105.7742 74° East 495 570 37,000  Level Albuquerque Center
01:59PM 36.3167 -105.6128 73° East 492 566 37,000  Level Albuquerque Center
02:01PM 36.3581 -105.4367 74° East 490 564 37,000  Level Albuquerque Center
02:02PM 36.4033 -105.2464 73° East 489 563 37,000  Level Albuquerque Center
02:03PM 36.4428 -105.0847 73° East 486 559 37,000  Level Albuquerque Center
02:04PM 36.4803 -104.9217 74° East 485 558 37,000  Level Albuquerque Center
02:05PM 36.5314 -104.7631 68° East 488 562 37,000  Level Albuquerque Center
02:06PM 36.5892 -104.6078 65° Northeast 488 562 37,000  Level Albuquerque Center
02:07PM 36.6364 -104.4481 70° East 487 560 37,000  Level Albuquerque Center
02:08PM 36.6872 -104.2717 70° East 487 560 37,000  Level Albuquerque Center
02:09PM 36.7336 -104.1197 69° East 490 564 37,000  Level Albuquerque Center
02:10PM 36.7864 -103.9422 70° East 490 564 37,000  Level Albuquerque Center
02:11PM 36.8303 -103.7903 70° East 490 564 37,000  Level Albuquerque Center
02:12PM 36.8817 -103.6119 70° East 491 565 37,000  Level Albuquerque Center
02:13PM 36.9269 -103.4603 69° East 490 564 37,000  Level Albuquerque Center
02:14PM 36.9817 -103.2839 69° East 489 563 37,000  Level Albuquerque Center
02:15PM 37.0228 -103.1311 71° East 486 559 37,000  Level Albuquerque Center
02:16PM 37.0581 -102.9769 74° East 485 558 37,000  Level Albuquerque Center
02:17PM 37.1164 -102.8047 67° East 483 556 37,000  Level Albuquerque Center
02:18PM 37.1689 -102.6589 66° East 481 554 37,000  Level Albuquerque Center
02:19PM 37.2281 -102.4900 66° East 476 548 37,000  Level Albuquerque Center
02:20PM 37.2789 -102.3464 66° East 472 543 37,000  Level Albuquerque Center
02:21PM 37.3344 -102.1794 67° East 465 535 37,000  Level Albuquerque Center
02:22PM 37.3861 -102.0286 67° East 463 533 37,000  Level Albuquerque Center
02:23PM 37.4339 -101.8886 67° East 456 525 37,000  Level Albuquerque Center
02:24PM 37.4642 -101.7950 68° East 453 521 37,000  Level Kansas City Center
02:25PM 37.5197 -101.6331 67° East 451 519 37,000  Level Kansas City Center
02:26PM 37.5664 -101.4942 67° East 450 518 37,000  Level Kansas City Center
02:27PM 37.6131 -101.3539 67° East 452 520 37,000  Level Kansas City Center
02:28PM 37.6692 -101.1861 67° East 460 529 37,000  Level Kansas City Center
02:29PM 37.7197 -101.0344 67° East 465 535 37,000  Level Kansas City Center
02:30PM 37.7764 -100.8644 67° East 471 542 37,000  Level Kansas City Center
02:31PM 37.8269 -100.7131 67° East 478 550 37,000  Level Kansas City Center
02:32PM 37.8756 -100.5633 68° East 480 552 37,000  Level Kansas City Center
02:33PM 37.9328 -100.3892 67° East 479 551 37,000  Level Kansas City Center
02:34PM 37.9814 -100.2403 67° East 478 550 37,000  Level Kansas City Center
02:35PM 38.0392 -100.0667 67° East 479 551 37,000  Level Kansas City Center
02:36PM 38.0861 -99.9186 68° East 476 548 37,000  Level Kansas City Center
02:37PM 38.1403 -99.7464 68° East 471 542 37,000  Level Kansas City Center
02:38PM 38.1881 -99.5986 68° East 472 543 37,000  Level Kansas City Center
02:39PM 38.2319 -99.4556 69° East 473 544 37,000  Level Kansas City Center
02:40PM 38.2828 -99.2992 67° East 476 548 37,000  Level Kansas City Center
02:41PM 38.3411 -99.1136 68° East 472 543 37,000  Level Kansas City Center
02:42PM 38.3903 -98.9558 68° East 476 548 37,000  Level Kansas City Center
02:43PM 38.4400 -98.7969 68° East 483 556 37,000  Level Kansas City Center
02:44PM 38.4886 -98.6397 68° East 478 550 37,000  Level Kansas City Center
02:45PM 38.5364 -98.4814 69° East 477 549 37,000  Level Kansas City Center
02:47PM 38.5850 -98.3247 68° East 475 547 37,000  Level Kansas City Center
02:48PM 38.6322 -98.1664 69° East 475 547 37,000  Level Kansas City Center
02:49PM 38.6800 -98.0081 69° East 475 547 37,000  Level Kansas City Center
02:50PM 38.7347 -97.8258 69° East 471 542 37,000  Level Kansas City Center
02:51PM 38.7806 -97.6739 69° East 475 547 37,000  Level Kansas City Center
02:52PM 38.8314 -97.5019 69° East 475 547 37,000  Level Kansas City Center
02:53PM 38.8775 -97.3406 70° East 477 549 37,000  Level Kansas City Center
02:54PM 38.9242 -97.1811 69° East 477 549 37,000 240 Level Kansas City Center
02:55PM 38.9697 -97.0206 70° East 478 550 37,600 960 Climbing Kansas City Center
02:56PM 39.0261 -96.8347 69° East 478 550 39,000 660 Climbing Kansas City Center
02:57PM 39.0686 -96.6836 70° East 472 543 39,000  Level Kansas City Center
02:58PM 39.1178 -96.5100 70° East 464 534 39,000  Level Kansas City Center
02:59PM 39.1569 -96.3575 72° East 468 539 39,000  Level Kansas City Center
03:00PM 39.2061 -96.1811 70° East 468 539 39,000  Level Kansas City Center
03:01PM 39.2489 -96.0272 70° East 474 545 39,000  Level Kansas City Center
03:02PM 39.2906 -95.8753 70° East 469 540 39,000  Level Kansas City Center
03:03PM 39.3397 -95.6944 71° East 474 545 39,000  Level Kansas City Center
03:04PM 39.3817 -95.5408 70° East 472 543 39,000  Level Kansas City Center
03:05PM 39.4294 -95.3619 71° East 470 541 39,000  Level Kansas City Center
03:06PM 39.4725 -95.2036 71° East 466 536 39,000  Level Kansas City Center
03:07PM 39.5125 -95.0528 71° East 466 536 39,000  Level Kansas City Center
03:08PM 39.5583 -94.8769 71° East 459 528 39,000  Level Kansas City Center
03:09PM 39.5986 -94.7264 71° East 460 529 39,000  Level Kansas City Center
03:10PM 39.6444 -94.5514 71° East 458 527 39,000  Level Kansas City Center
03:11PM 39.6836 -94.4017 71° East 457 526 39,000  Level Kansas City Center
03:12PM 39.7283 -94.2275 71° East 456 525 39,000  Level Kansas City Center
03:13PM 39.7669 -94.0825 71° East 448 516 39,000  Level Kansas City Center
03:14PM 39.8097 -93.9119 72° East 439 505 39,000  Level Kansas City Center
03:15PM 39.8442 -93.7667 73° East 438 504 39,000  Level Kansas City Center
03:16PM 39.8817 -93.6197 72° East 434 499 39,000  Level Kansas City Center
03:17PM 39.9194 -93.4683 72° East 440 506 39,000  Level Kansas City Center
03:19PM 39.9592 -93.3172 71° East 445 512 39,000  Level Kansas City Center
03:20PM 40.0036 -93.1314 73° East 451 519 39,000  Level Kansas City Center
03:21PM 40.0408 -92.9767 73° East 451 519 39,000  Level Kansas City Center
03:22PM 40.0814 -92.8103 72° East 456 525 39,000  Level Kansas City Center
03:23PM 40.1181 -92.6603 72° East 454 522 39,000  Level Kansas City Center
03:24PM 40.1683 -92.4903 69° East 449 517 39,000  Level Kansas City Center
03:25PM 40.2244 -92.3514 62° Northeast 449 517 39,000  Level Kansas City Center
03:26PM 40.2764 -92.2014 66° East 450 518 39,000 -600 Level Kansas City Center
03:27PM 40.3278 -92.0558 65° Northeast 447 514 37,800 -2,040 Descending Kansas City Center
03:28PM 40.3919 -91.8744 65° Northeast 459 528 34,900 -2,340 Descending Kansas City Center
03:29PM 40.4478 -91.7172 65° Northeast 475 547 33,000 -1,800 Descending Kansas City Center
03:30PM 40.5014 -91.5556 66° East 484 557 31,200 -1,500 Descending Kansas City Center
03:30PM 40.5236 -91.4922 65° Northeast 485 558 31,000 -180 Descending Chicago Center
03:31PM 40.5772 -91.3317 66° East 484 557 31,000  Level Chicago Center
03:32PM 40.6328 -91.1722 65° Northeast 482 555 31,000  Level Chicago Center
03:33PM 40.6869 -91.0078 66° East 489 563 31,000  Level Chicago Center
03:34PM 40.7417 -90.8444 66° East 488 562 31,000  Level Chicago Center
03:35PM 40.8083 -90.6489 66° East 486 559 31,000  Level Chicago Center
03:36PM 40.8625 -90.4847 66° East 486 559 31,000  Level Chicago Center
03:37PM 40.9183 -90.3183 66° East 490 564 31,000 -420 Level Chicago Center
03:39PM 40.9722 -90.1575 66° East 484 557 30,200 -1,440 Descending Chicago Center
03:40PM 41.0261 -89.9906 67° East 478 550 28,100 -1,920 Descending Chicago Center
03:41PM 41.0803 -89.8303 66° East 473 544 26,300 -1,920 Descending Chicago Center
03:42PM 41.1317 -89.6750 66° East 459 528 24,200 -2,100 Descending Chicago Center
03:43PM 41.1836 -89.5294 65° Northeast 440 506 22,000 -2,340 Descending Chicago Center
03:44PM 41.2508 -89.3656 61° Northeast 421 484 19,400 -2,280 Descending Chicago Center
03:45PM 41.3039 -89.2344 62° Northeast 404 465 17,400 -2,040 Descending Chicago Center
03:46PM 41.3481 -89.1186 63° Northeast 393 452 15,300 -2,160 Descending Chicago Center
03:47PM 41.4075 -88.9694 62° Northeast 382 440 13,000 -2,040 Descending Chicago Center
03:48PM 41.4533 -88.8508 63° Northeast 364 419 11,100 -960 Descending Chicago Center
03:49PM 41.5014 -88.7347 61° Northeast 361 415 11,000 -60 Descending Chicago Center
03:50PM 41.5428 -88.6297 62° Northeast 322 371 11,000 -120 Level Chicago Center
03:51PM 41.5803 -88.5447 59° Northeast 273 314 10,800 -840 Descending Chicago Center
03:52PM 41.6361 -88.4603 48° Northeast 254 292 9,300 -1,320 Descending Chicago Center
03:53PM 41.6836 -88.3889 48° Northeast 255 293 8,100 -660 Descending Chicago Center
03:54PM 41.7544 -88.3600 17° North 263 303 8,000 -720 Descending Chicago Center
03:55PM 41.8228 -88.3317 17° North 256 295 6,700 -1,320 Descending Chicago Center
03:56PM 41.8906 -88.3028 18° North 256 295 5,300 -1,020 Descending Chicago Center
03:57PM 41.9367 -88.2497 41° Northeast 256 295 4,600 -660 Descending Chicago Center
03:58PM 41.9689 -88.1578 65° Northeast 232 267 4,000 -840 Descending Chicago Center
03:59PM 41.9681 -88.0803 91° East 215 247 2,900 -1,080 Descending Chicago Center
03:59PM 41.9667 -88.0667 98° East 190 219 2,600 -1,200 Descending Chicago TRACON